Orbital elements of COSMOS 970 DEB
| Launched | 20 December 1977 |
| Flight ended | – |
| Launch site | Tyuratam Missile and Space Center, Kazakhstan (Also known as Baikonur Cosmodrome) |
| Owner | Commonwealth of Independent States (former USSR) |
| NORAD ID | 14443 |
| Date fetched |
Epoch osculation |
Inc. [°] |
Ecc. | RA asc node [hr] |
Arg Peri. [°] |
Mean anom [°] |
Mean motion [rev/day] |
Abs. mag |
| Date fetched |
Epoch osculation |
Inc. [°] |
Ecc. | RA asc node [hr] |
Arg Peri. [°] |
Mean anom [°] |
Mean motion [rev/day] |
Abs. mag |
| 2026 May 03 17:57 | 2026 Apr 30 07:18:25 | 65.5734 | 0.00968 | 5.9434 | 206.2091 | 153.4103 | 14.66744 | – |
| 2026 May 02 17:57 | 2026 Apr 30 07:18:25 | 65.5734 | 0.00968 | 5.9434 | 206.2091 | 153.4103 | 14.66744 | – |
| 2026 May 01 17:56 | 2026 Apr 30 07:18:25 | 65.5734 | 0.00968 | 5.9434 | 206.2091 | 153.4103 | 14.66744 | – |
| 2026 Apr 30 17:56 | 2026 Apr 30 07:18:25 | 65.5734 | 0.00968 | 5.9434 | 206.2091 | 153.4103 | 14.66744 | – |
| 2026 Apr 29 17:57 | 2026 Apr 24 08:56:04 | 65.5729 | 0.00974 | 7.0911 | 209.1389 | 153.4103 | 14.66744 | – |
| 2026 Apr 28 17:56 | 2026 Apr 24 08:56:04 | 65.5729 | 0.00974 | 7.0911 | 209.1389 | 153.4103 | 14.66744 | – |
| 2026 Apr 27 17:58 | 2026 Apr 24 08:56:04 | 65.5729 | 0.00974 | 7.0911 | 209.1389 | 153.4103 | 14.66744 | – |
| 2026 Apr 26 17:58 | 2026 Apr 24 08:56:04 | 65.5729 | 0.00974 | 7.0911 | 209.1389 | 153.4103 | 14.66744 | – |
| 2026 Apr 25 17:58 | 2026 Apr 24 08:56:04 | 65.5729 | 0.00974 | 7.0911 | 209.1389 | 153.4103 | 14.66744 | – |
| 2026 Apr 24 17:59 | 2026 Apr 24 08:56:04 | 65.5729 | 0.00974 | 7.0911 | 209.1389 | 153.4103 | 14.66744 | – |
| 2026 Apr 23 17:57 | 2026 Apr 19 04:33:36 | 65.5725 | 0.00980 | 8.0935 | 211.6379 | 153.4103 | 14.66744 | – |
| 2026 Apr 22 17:57 | 2026 Apr 19 04:33:36 | 65.5725 | 0.00980 | 8.0935 | 211.6379 | 153.4103 | 14.66744 | – |
| 2026 Apr 21 17:57 | 2026 Apr 19 04:33:36 | 65.5725 | 0.00980 | 8.0935 | 211.6379 | 153.4103 | 14.66744 | – |
| 2026 Apr 20 17:57 | 2026 Apr 19 04:33:36 | 65.5725 | 0.00980 | 8.0935 | 211.6379 | 153.4103 | 14.66744 | – |
| 2026 Apr 19 17:58 | 2026 Apr 19 04:33:36 | 65.5725 | 0.00980 | 8.0935 | 211.6379 | 153.4103 | 14.66744 | – |
| 2026 Apr 18 17:56 | 2026 Apr 13 02:54:29 | 65.5738 | 0.00986 | 9.2675 | 214.4664 | 153.4103 | 14.66744 | – |
| 2026 Apr 16 17:57 | 2026 Apr 13 02:54:29 | 65.5738 | 0.00986 | 9.2675 | 214.4664 | 153.4103 | 14.66744 | – |
| 2026 Apr 14 17:57 | 2026 Apr 13 02:54:29 | 65.5738 | 0.00986 | 9.2675 | 214.4664 | 153.4103 | 14.66744 | – |
| 2026 Apr 13 17:57 | 2026 Apr 13 02:54:29 | 65.5738 | 0.00986 | 9.2675 | 214.4664 | 153.4103 | 14.66744 | – |
| 2026 Apr 12 17:57 | 2026 Apr 08 06:42:43 | 65.5740 | 0.00991 | 10.2039 | 216.7777 | 153.4103 | 14.66744 | – |
| 2026 Apr 11 17:57 | 2026 Apr 08 06:42:43 | 65.5740 | 0.00991 | 10.2039 | 216.7777 | 153.4103 | 14.66744 | – |
| 2026 Apr 10 17:58 | 2026 Apr 08 06:42:43 | 65.5740 | 0.00991 | 10.2039 | 216.7777 | 153.4103 | 14.66744 | – |
| 2026 Apr 09 18:01 | 2026 Apr 08 06:42:43 | 65.5740 | 0.00991 | 10.2039 | 216.7777 | 153.4103 | 14.66744 | – |
| 2026 Apr 08 17:57 | 2026 Apr 08 06:42:43 | 65.5740 | 0.00991 | 10.2039 | 216.7777 | 153.4103 | 14.66744 | – |
| 2026 Apr 07 17:57 | 2026 Apr 02 06:41:17 | 65.5754 | 0.00998 | 11.3646 | 219.4116 | 153.4103 | 14.66744 | – |
| 2026 Apr 06 17:57 | 2026 Apr 02 06:41:17 | 65.5754 | 0.00998 | 11.3646 | 219.4116 | 153.4103 | 14.66744 | – |